Sunday, July 24, 2016, 6:33 AM EDT

KDYL, Doylestown Airport

Location: Doylestown, PA, United States Lat: 40.333
Local Time: 6:33 AM EDT (10:33 GMT) Lon: -75.117
Time Zone: US/Eastern Elev: 393 ft

Show me the last for .
Show Decoded

2016-07-24 05:54 METAR KDYL 240954Z AUTO 00000KT 10SM CLR 19/16 A2997 RMK AO2 SLP143 T01890161 =
2016-07-24 04:54 METAR KDYL 240854Z AUTO 00000KT 10SM CLR 19/17 A2996 RMK AO2 SLP137 T01890167
                 53002 =
2016-07-24 03:54 METAR KDYL 240754Z AUTO 00000KT 10SM CLR 20/17 A2995 RMK AO2 SLP136 T02000167 =
2016-07-24 02:54 METAR KDYL 240654Z AUTO 00000KT 10SM CLR 20/18 A2995 RMK AO2 SLP136 T02000183 =
2016-07-24 01:54 METAR KDYL 240554Z AUTO 00000KT 10SM CLR 22/19 A2995 RMK AO2 SLP135 T02170189
                 10289 20217 51014 =
2016-07-24 00:54 METAR KDYL 240454Z AUTO 00000KT 10SM CLR 22/19 A2994 RMK AO2 SLP131 T02220189
                 403560217 =
2016-07-23 23:54 METAR KDYL 240354Z AUTO 03003KT 10SM CLR 23/19 A2993 RMK AO2 SLP127 T02330189 =
2016-07-23 22:54 METAR KDYL 240254Z AUTO 00000KT 10SM FEW100 25/19 A2991 RMK AO2 SLP120 T02500189
                 53014 =
2016-07-23 21:54 METAR KDYL 240154Z AUTO 25003KT 10SM CLR 26/18 A2990 RMK AO2 SLP117 T02610183 =
2016-07-23 20:54 METAR KDYL 240054Z AUTO 23004KT 10SM FEW110 28/18 A2987 RMK AO2 SLP107 T02780183
                 =
2016-07-23 19:54 METAR KDYL 232354Z AUTO 19004KT 10SM FEW110 29/18 A2987 RMK AO2 SLP106 T02890183
                 10356 20289 53015 =
2016-07-23 18:54 METAR KDYL 232254Z AUTO 18006KT 10SM CLR 29/19 A2984 RMK AO2 SLP098 T02940194 =
2016-07-23 17:54 METAR KDYL 232154Z AUTO VRB06KT 10SM FEW120 34/13 A2981 RMK AO2 LTG DSNT SE-SW
                 SLP088 T03390128 =
2016-07-23 16:54 METAR KDYL 232054Z AUTO VRB06KT 10SM FEW085 35/13 A2982 RMK AO2 LTG DSNT S AND
                 SW SLP090 T03500133 58016 =
2016-07-23 15:54 METAR KDYL 231954Z AUTO VRB06G16KT 10SM CLR 34/13 A2985 RMK AO2 SLP101 T03440133
                 =
2016-07-23 14:54 METAR KDYL 231854Z AUTO 26007KT 230V290 10SM FEW085 34/14 A2986 RMK AO2 SLP103
                 T03440139 =
2016-07-23 13:54 METAR KDYL 231754Z AUTO 27013G19KT 10SM CLR 34/13 A2987 RMK AO2 SLP106 T03390128
                 10339 20261 58011 =
2016-07-23 12:54 METAR KDYL 231654Z AUTO 29009KT 250V320 10SM CLR 33/14 A2988 RMK AO2 SLP111
                 T03280139 =
2016-07-23 11:54 METAR KDYL 231554Z AUTO 27007KT 10SM CLR 32/16 A2990 RMK AO2 SLP116 T03220161 =
2016-07-23 10:54 METAR KDYL 231454Z AUTO 30008KT 10SM CLR 31/17 A2990 RMK AO2 SLP117 T03110167
                 58003 =
2016-07-23 09:54 METAR KDYL 231354Z AUTO VRB05KT 10SM FEW033 29/22 A2990 RMK AO2 SLP118 T02940217
                 =
2016-07-23 08:54 METAR KDYL 231254Z AUTO 28006KT 10SM CLR 28/21 A2991 RMK AO2 SLP120 T02830211 =
2016-07-23 07:54 METAR KDYL 231154Z AUTO 22003KT 10SM CLR 26/21 A2991 RMK AO2 SLP120 T02610211
                 10261 20217 51009 =
2016-07-23 06:54 METAR KDYL 231054Z AUTO 00000KT 10SM BKN055 24/20 A2990 RMK AO2 SLP119 T02390200
                 =

Support USWX by starting your Amazon purchase here.